createdAt,value
2023-04-29T00:00:08.095Z,114.67
2023-04-29T00:01:08.144Z,118.86
2023-04-29T00:02:08.194Z,120.93
2023-04-29T00:03:08.290Z,127.99
2023-04-29T00:04:08.303Z,118.33
2023-04-29T00:05:08.513Z,112.78
2023-04-29T00:06:08.344Z,114.93
2023-04-29T00:07:08.219Z,120.63
2023-04-29T00:08:08.225Z,110.79
2023-04-29T00:09:08.296Z,106.38
2023-04-29T00:10:08.308Z,106.39
2023-04-29T00:11:08.359Z,101.25
2023-04-29T00:12:08.421Z,98.16
2023-04-29T00:13:08.393Z,150.18
2023-04-29T00:14:08.450Z,183.43
2023-04-29T00:15:08.445Z,192.85
2023-04-29T00:16:08.472Z,192.93
2023-04-29T00:17:08.574Z,180.63
2023-04-29T00:18:08.628Z,187.39
2023-04-29T00:19:08.613Z,204.66
2023-04-29T00:20:08.612Z,213.36
2023-04-29T00:21:08.673Z,233.95
2023-04-29T00:22:08.649Z,244.39
2023-04-29T00:23:08.696Z,219.08
2023-04-29T00:24:08.699Z,199.06
2023-04-29T00:25:08.671Z,178.91
2023-04-29T00:26:08.723Z,163.09
2023-04-29T00:27:08.724Z,144.27
2023-04-29T00:28:08.769Z,177.60
2023-04-29T00:29:08.733Z,197.22
2023-04-29T00:30:08.781Z,208.29
2023-04-29T00:31:08.818Z,201.00
2023-04-29T00:32:08.792Z,197.07
2023-04-29T00:33:08.869Z,199.58
2023-04-29T00:34:08.819Z,196.84
2023-04-29T00:35:08.832Z,203.62
2023-04-29T00:36:08.867Z,165.54
2023-04-29T00:37:08.914Z,161.13
2023-04-29T00:38:08.930Z,166.55
2023-04-29T00:39:08.958Z,156.59
2023-04-29T00:40:09.015Z,157.61
2023-04-29T00:41:08.984Z,167.99
2023-04-29T00:42:09.014Z,175.63
2023-04-29T00:43:09.044Z,186.61
2023-04-29T00:44:09.076Z,201.07
2023-04-29T00:45:09.079Z,182.33
2023-04-29T00:46:09.107Z,182.93
2023-04-29T00:47:09.095Z,175.28
2023-04-29T00:48:09.232Z,177.87
2023-04-29T00:49:09.133Z,171.71
2023-04-29T00:50:09.129Z,174.83
2023-04-29T00:51:09.176Z,165.13
2023-04-29T00:52:09.198Z,169.75
2023-04-29T00:53:09.227Z,178.02
2023-04-29T00:54:09.308Z,183.50
2023-04-29T00:55:09.323Z,187.55
2023-04-29T00:56:09.351Z,179.96
2023-04-29T00:57:09.363Z,177.76
2023-04-29T00:58:09.417Z,160.22
2023-04-29T00:59:09.480Z,155.48
2023-04-29T01:00:09.548Z,150.18
2023-04-29T01:01:09.567Z,139.39
2023-04-29T01:02:09.532Z,126.06
2023-04-29T01:03:09.656Z,126.87
2023-04-29T01:04:09.700Z,131.98
2023-04-29T01:05:09.588Z,181.00
2023-04-29T01:06:09.602Z,219.82
2023-04-29T01:07:09.605Z,221.00
2023-04-29T01:08:09.642Z,196.12
2023-04-29T01:09:09.700Z,191.21
2023-04-29T01:10:09.834Z,187.73
2023-04-29T01:11:09.736Z,181.14
2023-04-29T01:12:09.800Z,176.61
2023-04-29T01:13:09.893Z,175.92
2023-04-29T01:14:09.906Z,152.48
2023-04-29T01:15:09.916Z,110.67
2023-04-29T01:16:09.928Z,90.10
2023-04-29T01:17:09.946Z,92.20
2023-04-29T01:18:10.062Z,88.92
2023-04-29T01:19:10.000Z,90.17
2023-04-29T01:20:10.074Z,88.64
2023-04-29T01:21:10.074Z,87.01
2023-04-29T01:22:10.151Z,83.62
2023-04-29T01:23:10.164Z,84.95
2023-04-29T01:24:10.203Z,95.75
2023-04-29T01:25:10.226Z,104.62
2023-04-29T01:26:10.239Z,110.24
2023-04-29T01:27:10.258Z,131.90
2023-04-29T01:28:10.324Z,142.46
2023-04-29T01:29:10.324Z,131.55
2023-04-29T01:30:10.394Z,102.88
2023-04-29T01:31:10.440Z,100.96
2023-04-29T01:32:10.433Z,95.80
2023-04-29T01:33:10.512Z,95.55
2023-04-29T01:34:10.471Z,114.61
2023-04-29T01:35:10.471Z,133.96
2023-04-29T01:36:10.583Z,145.75
2023-04-29T01:37:10.546Z,160.98
2023-04-29T01:38:10.588Z,174.05
2023-04-29T01:39:10.628Z,180.28
2023-04-29T01:40:10.671Z,189.76
2023-04-29T01:41:10.742Z,173.52
2023-04-29T01:42:10.752Z,160.84
2023-04-29T01:43:10.784Z,142.11
2023-04-29T01:44:10.812Z,143.80
2023-04-29T01:45:10.811Z,155.37
2023-04-29T01:46:10.881Z,154.60
2023-04-29T01:47:10.866Z,157.63
2023-04-29T01:48:10.920Z,157.26
2023-04-29T01:49:10.915Z,144.61
2023-04-29T01:50:10.982Z,119.63
2023-04-29T01:51:10.988Z,110.64
2023-04-29T01:52:10.990Z,119.35
2023-04-29T01:53:11.017Z,118.84
2023-04-29T01:54:11.044Z,101.36
2023-04-29T01:55:11.109Z,104.49
2023-04-29T01:56:11.107Z,105.94
2023-04-29T01:57:11.174Z,121.19
2023-04-29T01:58:11.222Z,131.79
2023-04-29T01:59:11.209Z,98.94
2023-04-29T02:00:11.246Z,100.36
2023-04-29T02:01:11.257Z,113.70
2023-04-29T02:02:11.292Z,120.50
2023-04-29T02:03:11.348Z,119.58
2023-04-29T02:04:11.331Z,99.30
2023-04-29T02:05:11.377Z,59.97
2023-04-29T02:06:11.426Z,46.42
2023-04-29T02:07:11.414Z,36.92
2023-04-29T02:08:11.425Z,36.52
2023-04-29T02:09:11.465Z,37.40
2023-04-29T02:10:11.517Z,46.53
2023-04-29T02:11:11.513Z,59.69
2023-04-29T02:12:11.521Z,60.41
2023-04-29T02:13:11.567Z,71.58
2023-04-29T02:14:11.592Z,63.62
2023-04-29T02:15:11.649Z,69.39
2023-04-29T02:16:11.718Z,82.79
2023-04-29T02:17:11.778Z,90.26
2023-04-29T02:18:11.773Z,99.07
2023-04-29T02:19:11.781Z,109.77
2023-04-29T02:20:11.785Z,118.81
2023-04-29T02:21:11.806Z,94.52
2023-04-29T02:22:11.866Z,72.39
2023-04-29T02:23:11.862Z,67.25
2023-04-29T02:24:11.910Z,63.52
2023-04-29T02:25:11.936Z,54.35
2023-04-29T02:26:12.030Z,55.87
2023-04-29T02:27:12.054Z,43.93
2023-04-29T02:28:12.065Z,43.40
2023-04-29T02:29:12.083Z,44.54
2023-04-29T02:30:12.152Z,54.21
2023-04-29T02:31:12.119Z,62.24
2023-04-29T02:32:12.212Z,68.53
2023-04-29T02:33:12.240Z,72.48
2023-04-29T02:34:12.192Z,74.76
2023-04-29T02:35:12.208Z,61.12
2023-04-29T02:36:12.239Z,54.38
2023-04-29T02:37:12.246Z,52.79
2023-04-29T02:38:12.308Z,48.63
2023-04-29T02:39:12.302Z,46.41
2023-04-29T02:40:12.355Z,58.16
2023-04-29T02:41:12.360Z,55.31
2023-04-29T02:42:12.403Z,45.76
2023-04-29T02:43:12.440Z,45.96
2023-04-29T02:44:12.453Z,46.55
2023-04-29T02:45:12.511Z,46.93
2023-04-29T02:46:12.590Z,46.60
2023-04-29T02:47:12.548Z,45.72
2023-04-29T02:48:12.621Z,46.83
2023-04-29T02:49:12.599Z,44.64
2023-04-29T02:50:12.621Z,38.98
2023-04-29T02:51:12.647Z,31.56
2023-04-29T02:52:12.675Z,28.26
2023-04-29T02:53:12.654Z,26.86
2023-04-29T02:54:12.683Z,26.85
2023-04-29T02:55:12.726Z,24.82
2023-04-29T02:56:12.694Z,21.27
2023-04-29T02:57:12.777Z,22.62
2023-04-29T02:58:12.772Z,26.89
2023-04-29T02:59:12.778Z,26.10
2023-04-29T03:00:12.798Z,26.82
2023-04-29T03:01:12.873Z,25.91
2023-04-29T03:02:12.924Z,25.23
2023-04-29T03:03:13.070Z,26.77
2023-04-29T03:04:13.048Z,34.51
2023-04-29T03:05:12.936Z,30.22
2023-04-29T03:06:12.911Z,25.74
2023-04-29T03:07:12.947Z,26.16
2023-04-29T03:08:13.045Z,27.32
2023-04-29T03:09:12.984Z,27.38
2023-04-29T03:10:13.068Z,33.47
2023-04-29T03:11:13.067Z,50.13
2023-04-29T03:12:13.132Z,62.18
2023-04-29T03:13:13.173Z,67.86
2023-04-29T03:14:13.169Z,61.87
2023-04-29T03:15:13.199Z,61.73
2023-04-29T03:16:13.292Z,64.66
2023-04-29T03:17:13.259Z,73.11
2023-04-29T03:18:13.364Z,83.63
2023-04-29T03:19:13.277Z,87.75
2023-04-29T03:20:13.325Z,94.82
2023-04-29T03:21:13.345Z,101.92
2023-04-29T03:22:13.370Z,86.67
2023-04-29T03:23:13.456Z,80.92
2023-04-29T03:24:13.446Z,69.92
2023-04-29T03:25:13.477Z,62.91
2023-04-29T03:26:13.589Z,60.01
2023-04-29T03:27:13.540Z,65.93
2023-04-29T03:28:13.642Z,81.03
2023-04-29T03:29:13.647Z,100.04
2023-04-29T03:30:13.684Z,96.90
2023-04-29T03:31:13.729Z,87.68
2023-04-29T03:32:13.752Z,91.14
2023-04-29T03:33:13.809Z,97.54
2023-04-29T03:34:13.812Z,105.77
2023-04-29T03:35:15.735Z,88.77
2023-04-29T03:36:13.886Z,68.56
2023-04-29T03:37:13.895Z,66.60
2023-04-29T03:38:13.945Z,66.88
2023-04-29T03:39:13.902Z,57.59
2023-04-29T03:40:13.960Z,53.68
2023-04-29T03:41:14.028Z,57.58
2023-04-29T03:42:14.044Z,74.39
2023-04-29T03:43:14.139Z,76.08
2023-04-29T03:44:14.095Z,61.09
2023-04-29T03:45:14.117Z,57.80
2023-04-29T03:46:14.203Z,64.56
2023-04-29T03:47:14.207Z,66.12
2023-04-29T03:48:14.209Z,67.97
2023-04-29T03:49:14.278Z,70.83
2023-04-29T03:50:14.273Z,91.32
2023-04-29T03:51:14.257Z,107.78
2023-04-29T03:52:14.309Z,117.83
2023-04-29T03:53:14.342Z,107.14
2023-04-29T03:54:14.319Z,85.91
2023-04-29T03:55:14.385Z,80.81
2023-04-29T03:56:15.110Z,54.15
2023-04-29T03:57:14.433Z,46.47
2023-04-29T03:58:14.472Z,42.25
2023-04-29T03:59:14.491Z,39.62
2023-04-29T04:00:14.521Z,42.97
2023-04-29T04:01:14.522Z,49.93
2023-04-29T04:02:14.530Z,38.18
2023-04-29T04:03:14.690Z,35.04
2023-04-29T04:04:14.724Z,28.06
2023-04-29T04:05:14.593Z,24.13
2023-04-29T04:06:14.613Z,30.12
2023-04-29T04:07:14.649Z,36.20
2023-04-29T04:08:14.679Z,44.54
2023-04-29T04:09:14.651Z,46.66
2023-04-29T04:10:14.677Z,54.17
2023-04-29T04:11:14.722Z,65.42
2023-04-29T04:12:14.767Z,77.27
2023-04-29T04:13:14.813Z,67.50
2023-04-29T04:14:14.892Z,41.75
2023-04-29T04:15:14.907Z,28.12
2023-04-29T04:16:14.942Z,27.63
2023-04-29T04:17:14.968Z,27.87
2023-04-29T04:18:15.009Z,40.10
2023-04-29T04:19:14.993Z,54.27
2023-04-29T04:20:15.021Z,53.58
2023-04-29T04:21:15.035Z,67.64
2023-04-29T04:22:15.051Z,69.51
2023-04-29T04:23:15.056Z,70.17
2023-04-29T04:24:15.105Z,76.80
2023-04-29T04:25:15.112Z,70.06
2023-04-29T04:26:15.239Z,69.54
2023-04-29T04:27:15.230Z,73.28
2023-04-29T04:28:15.250Z,54.74
2023-04-29T04:29:15.239Z,59.01
2023-04-29T04:30:15.280Z,59.45
2023-04-29T04:31:15.306Z,51.74
2023-04-29T04:32:15.313Z,53.29
2023-04-29T04:33:15.358Z,57.85
2023-04-29T04:34:15.383Z,64.84
2023-04-29T04:35:15.381Z,61.09
2023-04-29T04:36:15.418Z,54.67
2023-04-29T04:37:15.445Z,45.75
2023-04-29T04:38:15.442Z,32.72
2023-04-29T04:39:15.439Z,34.27
2023-04-29T04:40:15.459Z,53.04
2023-04-29T04:41:15.474Z,71.99
2023-04-29T04:42:15.575Z,78.69
2023-04-29T04:43:15.568Z,78.79
2023-04-29T04:44:15.640Z,84.98
2023-04-29T04:45:15.685Z,84.36
2023-04-29T04:46:15.830Z,77.68
2023-04-29T04:47:15.700Z,78.14
2023-04-29T04:48:15.734Z,76.68
2023-04-29T04:49:15.803Z,74.50
2023-04-29T04:50:15.811Z,74.55
2023-04-29T04:51:15.859Z,79.20
2023-04-29T04:52:15.861Z,80.29
2023-04-29T04:53:15.901Z,84.12
2023-04-29T04:54:15.905Z,79.26
2023-04-29T04:55:15.918Z,68.77
2023-04-29T04:56:15.932Z,63.37
2023-04-29T04:57:15.984Z,64.73
2023-04-29T04:58:16.005Z,71.11
2023-04-29T04:59:16.071Z,77.87
2023-04-29T05:00:16.113Z,76.70
2023-04-29T05:01:16.180Z,77.25
2023-04-29T05:02:16.193Z,85.09
2023-04-29T05:03:16.328Z,89.79
2023-04-29T05:04:16.497Z,92.05
2023-04-29T05:05:16.327Z,94.69
2023-04-29T05:06:16.398Z,68.47
2023-04-29T05:07:16.407Z,45.50
2023-04-29T05:08:16.437Z,51.29
2023-04-29T05:09:16.449Z,57.90
2023-04-29T05:10:16.524Z,61.26
2023-04-29T05:11:16.520Z,45.63
2023-04-29T05:12:16.556Z,32.52
2023-04-29T05:13:16.610Z,30.55
2023-04-29T05:14:16.670Z,38.09
2023-04-29T05:15:16.721Z,45.32
2023-04-29T05:16:16.751Z,47.02
2023-04-29T05:17:16.799Z,49.62
2023-04-29T05:18:16.851Z,50.74
2023-04-29T05:19:16.900Z,53.67
2023-04-29T05:20:16.914Z,54.63
2023-04-29T05:21:17.865Z,52.88
2023-04-29T05:22:16.929Z,49.26
2023-04-29T05:23:16.972Z,49.10
2023-04-29T05:24:16.968Z,50.63
2023-04-29T05:25:17.009Z,49.22
2023-04-29T05:26:16.993Z,49.86
2023-04-29T05:27:17.047Z,50.77
2023-04-29T05:28:17.096Z,50.87
2023-04-29T05:29:17.071Z,52.28
2023-04-29T05:30:17.112Z,50.13
2023-04-29T05:31:17.137Z,55.16
2023-04-29T05:32:17.167Z,55.25
2023-04-29T05:33:17.172Z,58.82
2023-04-29T05:34:17.250Z,54.02
2023-04-29T05:35:17.252Z,48.57
2023-04-29T05:36:17.308Z,45.99
2023-04-29T05:37:17.294Z,45.45
2023-04-29T05:38:17.332Z,49.89
2023-04-29T05:39:17.365Z,49.06
2023-04-29T05:40:17.448Z,54.19
2023-04-29T05:41:17.430Z,48.30
2023-04-29T05:42:17.496Z,44.66
2023-04-29T05:43:17.540Z,48.39
2023-04-29T05:44:17.599Z,53.80
2023-04-29T05:45:17.664Z,57.80
2023-04-29T05:46:17.742Z,60.22
2023-04-29T05:47:17.735Z,59.63
2023-04-29T05:48:17.748Z,59.07
2023-04-29T05:49:17.858Z,68.79
2023-04-29T05:50:17.863Z,77.72
2023-04-29T05:51:17.916Z,83.24
2023-04-29T05:52:17.965Z,78.23
2023-04-29T05:53:18.017Z,79.48
2023-04-29T05:54:18.030Z,80.59
2023-04-29T05:55:18.031Z,84.96
2023-04-29T05:56:18.085Z,84.03
2023-04-29T05:57:18.170Z,81.30
2023-04-29T05:58:18.133Z,75.95
2023-04-29T05:59:18.155Z,59.49
2023-04-29T06:00:18.178Z,54.37
2023-04-29T06:01:18.208Z,53.66
2023-04-29T06:02:18.186Z,56.02
2023-04-29T06:03:18.332Z,61.49
2023-04-29T06:04:18.456Z,66.46
2023-04-29T06:05:18.478Z,67.82
2023-04-29T06:06:18.387Z,69.76
2023-04-29T06:07:20.077Z,67.44
2023-04-29T06:08:18.274Z,68.69
2023-04-29T06:09:27.067Z,69.91
2023-04-29T06:10:19.326Z,70.14
2023-04-29T06:11:18.309Z,69.93
2023-04-29T06:12:18.306Z,68.17
2023-04-29T06:13:18.273Z,70.61
2023-04-29T06:14:18.285Z,63.25
2023-04-29T06:15:18.295Z,57.56
2023-04-29T06:16:18.307Z,56.44
2023-04-29T06:17:18.295Z,57.01
2023-04-29T06:18:18.250Z,54.52
2023-04-29T06:19:18.273Z,50.90
2023-04-29T06:20:18.462Z,51.30
2023-04-29T06:21:18.235Z,53.23
2023-04-29T06:22:18.257Z,50.17
2023-04-29T06:23:18.309Z,43.52
2023-04-29T06:24:18.381Z,45.57
2023-04-29T06:25:18.389Z,46.29
2023-04-29T06:26:18.429Z,49.76
2023-04-29T06:27:18.496Z,54.22
2023-04-29T06:28:18.550Z,56.61
2023-04-29T06:29:18.550Z,45.36
2023-04-29T06:30:18.614Z,34.29
2023-04-29T06:31:19.128Z,34.25
2023-04-29T06:32:18.674Z,41.84
2023-04-29T06:33:18.681Z,40.71
2023-04-29T06:34:18.741Z,32.81
2023-04-29T06:35:18.791Z,30.30
2023-04-29T06:36:18.847Z,32.03
2023-04-29T06:37:18.880Z,23.39
2023-04-29T06:38:18.907Z,19.25
2023-04-29T06:39:18.969Z,18.00
2023-04-29T06:40:19.003Z,17.73
2023-04-29T06:41:19.032Z,15.14
2023-04-29T06:42:19.104Z,14.22
2023-04-29T06:43:19.128Z,13.17
2023-04-29T06:44:19.151Z,12.48
2023-04-29T06:45:19.203Z,11.77
2023-04-29T06:46:19.255Z,7.05
2023-04-29T06:47:19.270Z,8.29
2023-04-29T06:48:19.288Z,8.21
2023-04-29T06:49:19.335Z,7.37
2023-04-29T06:50:19.356Z,8.05
2023-04-29T06:51:19.401Z,8.50
2023-04-29T06:52:19.411Z,6.04
2023-04-29T06:53:19.469Z,4.56
2023-04-29T06:54:19.472Z,5.81
2023-04-29T06:55:19.483Z,6.51
2023-04-29T06:56:19.575Z,5.58
2023-04-29T06:57:19.542Z,5.23
2023-04-29T06:58:19.567Z,5.95
2023-04-29T06:59:19.586Z,6.52
2023-04-29T07:00:19.622Z,7.05
2023-04-29T07:01:19.744Z,9.06
2023-04-29T07:02:19.806Z,9.70
2023-04-29T07:03:19.879Z,7.03
2023-04-29T07:04:19.828Z,5.56
2023-04-29T07:05:19.775Z,3.93
2023-04-29T07:06:19.849Z,3.28
2023-04-29T07:07:19.856Z,3.85
2023-04-29T07:08:19.875Z,3.89
2023-04-29T07:09:19.930Z,3.85
2023-04-29T07:10:19.892Z,2.52
2023-04-29T07:11:19.942Z,2.19
2023-04-29T07:12:19.969Z,2.02
2023-04-29T07:13:20.016Z,2.09
2023-04-29T07:14:20.070Z,2.11
2023-04-29T07:15:20.085Z,2.29
2023-04-29T07:16:20.139Z,2.16
2023-04-29T07:17:20.153Z,2.40
2023-04-29T07:18:20.136Z,2.18
2023-04-29T07:19:20.174Z,2.05
2023-04-29T07:20:22.515Z,1.69
2023-04-29T07:21:20.236Z,1.57
2023-04-29T07:22:20.269Z,2.23
2023-04-29T07:23:20.291Z,2.66
2023-04-29T07:24:20.335Z,1.84
2023-04-29T07:25:20.389Z,1.48
2023-04-29T07:26:20.418Z,1.11
2023-04-29T07:27:20.447Z,1.09
2023-04-29T07:28:20.429Z,1.39
2023-04-29T07:29:20.509Z,1.63
2023-04-29T07:30:20.541Z,1.53
2023-04-29T07:31:20.589Z,1.33
2023-04-29T07:32:20.584Z,1.22
2023-04-29T07:33:20.631Z,1.15
2023-04-29T07:34:20.714Z,1.17
2023-04-29T07:35:20.719Z,1.26
2023-04-29T07:36:20.733Z,1.10
2023-04-29T07:37:20.759Z,1.05
2023-04-29T07:38:20.784Z,1.17
2023-04-29T07:39:20.795Z,1.27
2023-04-29T07:40:20.842Z,1.48
2023-04-29T07:41:20.836Z,1.06
2023-04-29T07:42:20.854Z,0.85
2023-04-29T07:43:20.926Z,0.70
2023-04-29T07:44:20.905Z,0.60
2023-04-29T07:45:20.934Z,0.96
2023-04-29T07:46:20.982Z,1.35
2023-04-29T07:47:21.075Z,2.23
2023-04-29T07:48:21.025Z,2.34
2023-04-29T07:49:21.033Z,2.37
2023-04-29T07:50:21.080Z,2.19
2023-04-29T07:51:21.153Z,2.05
2023-04-29T07:52:21.183Z,2.54
2023-04-29T07:53:21.230Z,2.09
2023-04-29T07:54:21.235Z,1.89
2023-04-29T07:55:21.242Z,0.95
2023-04-29T07:56:21.277Z,0.62
2023-04-29T07:57:21.279Z,0.39
2023-04-29T07:58:21.362Z,0.40
2023-04-29T07:59:21.384Z,0.47
2023-04-29T08:00:21.411Z,0.62
2023-04-29T08:01:21.442Z,0.51
2023-04-29T08:02:21.584Z,0.53
2023-04-29T08:03:21.610Z,0.51
2023-04-29T08:04:21.745Z,0.55
2023-04-29T08:05:21.785Z,0.66
2023-04-29T08:06:21.623Z,0.61
2023-04-29T08:07:22.595Z,0.64
2023-04-29T08:08:21.675Z,0.74
2023-04-29T08:09:21.687Z,1.28
2023-04-29T08:10:21.788Z,1.13
2023-04-29T08:11:21.754Z,1.32
2023-04-29T08:12:21.811Z,1.32
2023-04-29T08:13:21.871Z,0.91
2023-04-29T08:14:21.865Z,0.87
2023-04-29T08:15:21.885Z,0.99
2023-04-29T08:16:21.974Z,1.02
2023-04-29T08:17:22.024Z,1.01
2023-04-29T08:18:21.937Z,0.77
2023-04-29T08:19:21.973Z,0.76
2023-04-29T08:20:21.986Z,0.66
2023-04-29T08:21:22.039Z,0.45
2023-04-29T08:22:22.133Z,0.39
2023-04-29T08:23:22.147Z,0.66
2023-04-29T08:24:22.163Z,0.66
2023-04-29T08:25:22.179Z,0.67
2023-04-29T08:26:23.967Z,0.51
2023-04-29T08:27:22.213Z,0.55
2023-04-29T08:28:22.272Z,0.43
2023-04-29T08:29:22.292Z,0.41
2023-04-29T08:30:22.333Z,0.70
2023-04-29T08:31:22.336Z,0.55
2023-04-29T08:32:22.545Z,0.59
2023-04-29T08:33:22.390Z,0.48
2023-04-29T08:34:22.455Z,0.51
2023-04-29T08:35:22.517Z,0.54
2023-04-29T08:36:22.495Z,0.67
2023-04-29T08:37:22.534Z,0.56
2023-04-29T08:38:22.579Z,0.56
2023-04-29T08:39:22.612Z,0.50
2023-04-29T08:40:22.602Z,0.44
2023-04-29T08:41:22.672Z,0.54
2023-04-29T08:42:22.666Z,0.57
2023-04-29T08:43:22.670Z,0.67
2023-04-29T08:44:22.727Z,0.84
2023-04-29T08:45:22.759Z,0.94
2023-04-29T08:46:22.811Z,0.87
2023-04-29T08:47:22.876Z,0.53
2023-04-29T08:48:23.002Z,0.42
2023-04-29T08:49:22.911Z,0.34
2023-04-29T08:50:22.944Z,0.34
2023-04-29T08:51:22.984Z,0.34
2023-04-29T08:52:23.015Z,0.34
2023-04-29T08:53:23.079Z,0.34
2023-04-29T08:54:23.093Z,0.54
2023-04-29T08:55:23.108Z,0.85
2023-04-29T08:56:23.200Z,0.50
2023-04-29T08:57:23.244Z,0.47
2023-04-29T08:58:23.236Z,0.48
2023-04-29T08:59:23.292Z,0.34
2023-04-29T09:00:23.321Z,0.55
2023-04-29T09:01:23.436Z,0.68
2023-04-29T09:02:23.414Z,1.05
2023-04-29T09:03:23.527Z,1.11
2023-04-29T09:04:23.487Z,0.99
2023-04-29T09:05:23.451Z,0.82
2023-04-29T09:06:23.459Z,0.49
2023-04-29T09:07:23.517Z,0.61
2023-04-29T09:08:23.533Z,0.72
2023-04-29T09:09:23.547Z,0.69
2023-04-29T09:10:23.644Z,0.65
2023-04-29T09:11:23.612Z,0.91
2023-04-29T09:12:23.682Z,1.06
2023-04-29T09:13:23.697Z,0.86
2023-04-29T09:14:23.731Z,0.82
2023-04-29T09:15:23.727Z,0.68
2023-04-29T09:16:23.796Z,0.42
2023-04-29T09:17:23.859Z,0.54
2023-04-29T09:18:23.830Z,0.85
2023-04-29T09:19:23.861Z,1.18
2023-04-29T09:20:23.919Z,1.97
2023-04-29T09:21:23.954Z,1.60
2023-04-29T09:22:23.941Z,1.26
2023-04-29T09:23:23.985Z,1.54
2023-04-29T09:24:24.014Z,1.50
2023-04-29T09:25:24.047Z,0.90
2023-04-29T09:26:24.103Z,0.40
2023-04-29T09:27:24.111Z,0.50
2023-04-29T09:28:24.124Z,0.47
2023-04-29T09:29:24.213Z,0.54
2023-04-29T09:30:24.193Z,0.72
2023-04-29T09:31:24.259Z,0.58
2023-04-29T09:32:24.278Z,0.49
2023-04-29T09:33:24.264Z,0.52
2023-04-29T09:34:24.302Z,0.52
2023-04-29T09:35:24.338Z,0.71
2023-04-29T09:36:24.364Z,0.64
2023-04-29T09:37:24.379Z,0.86
2023-04-29T09:38:24.398Z,1.22
2023-04-29T09:39:24.471Z,1.22
2023-04-29T09:40:24.469Z,1.01
2023-04-29T09:42:43.526Z,0.50
2023-04-29T09:43:43.501Z,0.50
2023-04-29T09:44:43.771Z,0.50
2023-04-29T09:45:43.541Z,0.50
2023-04-29T09:46:43.497Z,0.50
2023-04-29T09:47:43.525Z,0.59
2023-04-29T09:48:43.458Z,0.93
2023-04-29T09:49:43.476Z,1.66
2023-04-29T09:50:43.477Z,1.66
2023-04-29T09:51:43.488Z,1.30
2023-04-29T09:52:43.477Z,1.12
2023-04-29T09:53:43.442Z,1.32
2023-04-29T09:54:43.498Z,2.81
2023-04-29T10:00:17.010Z,0.50
2023-04-29T10:01:16.959Z,0.50
2023-04-29T10:02:16.887Z,0.50
2023-04-29T10:03:17.097Z,0.50
2023-04-29T10:04:16.949Z,0.50
2023-04-29T10:05:16.971Z,0.50
2023-04-29T10:06:16.861Z,0.39
2023-04-29T10:07:17.023Z,0.34
2023-04-29T10:08:16.854Z,0.34
2023-04-29T10:09:16.887Z,0.51
2023-04-29T10:10:16.857Z,0.42
2023-04-29T10:11:16.843Z,0.36
2023-04-29T10:12:16.835Z,0.79
2023-04-29T10:13:16.805Z,0.36
2023-04-29T10:14:16.868Z,0.34
2023-04-29T10:15:16.812Z,0.34
2023-04-29T10:16:16.797Z,0.34
2023-04-29T10:17:16.847Z,0.34
2023-04-29T10:18:16.816Z,0.34
2023-04-29T10:19:16.783Z,0.34
2023-04-29T10:20:16.973Z,0.50
2023-04-29T10:21:16.897Z,0.89
2023-04-29T10:22:16.938Z,0.95
2023-04-29T10:23:16.942Z,0.62
2023-04-29T10:24:16.986Z,0.58
2023-04-29T10:25:17.034Z,0.62
2023-04-29T10:26:17.035Z,0.40
2023-04-29T10:27:17.095Z,0.48
2023-04-29T10:28:17.137Z,0.76
2023-04-29T10:29:17.160Z,0.71
2023-04-29T10:30:17.187Z,0.47
2023-04-29T10:31:17.214Z,0.51
2023-04-29T10:32:17.251Z,0.52
2023-04-29T10:33:17.320Z,0.34
2023-04-29T10:34:17.300Z,0.34
2023-04-29T10:35:17.313Z,0.34
2023-04-29T10:36:17.320Z,0.46
2023-04-29T10:37:17.364Z,0.35
2023-04-29T10:38:19.036Z,0.41
2023-04-29T10:39:17.442Z,0.40
2023-04-29T10:40:17.465Z,0.53
2023-04-29T10:41:17.536Z,0.82
2023-04-29T10:42:17.576Z,1.51
2023-04-29T10:43:17.646Z,2.23
2023-04-29T10:44:17.683Z,1.85
2023-04-29T10:45:17.734Z,1.92
2023-04-29T10:46:17.823Z,1.61
2023-04-29T10:47:17.788Z,1.67
2023-04-29T10:48:17.749Z,1.77
2023-04-29T10:49:17.792Z,1.73
2023-04-29T10:50:17.807Z,1.93
2023-04-29T10:51:17.837Z,2.71
2023-04-29T10:52:17.875Z,2.37
2023-04-29T10:53:17.933Z,2.55
2023-04-29T10:54:17.945Z,3.28
2023-04-29T10:55:17.995Z,3.95
2023-04-29T10:56:17.952Z,3.83
2023-04-29T10:57:18.014Z,3.63
2023-04-29T10:58:18.046Z,4.63
2023-04-29T10:59:18.041Z,7.19
2023-04-29T11:00:18.100Z,3.63
2023-04-29T11:01:18.138Z,2.17
2023-04-29T11:02:18.153Z,1.91
2023-04-29T11:03:18.264Z,2.24
2023-04-29T11:04:18.220Z,1.85
2023-04-29T11:05:18.272Z,1.81
2023-04-29T11:06:18.254Z,1.13
2023-04-29T11:07:18.293Z,1.55
2023-04-29T11:08:18.332Z,3.77
2023-04-29T11:09:18.391Z,3.22
2023-04-29T11:10:18.431Z,1.98
2023-04-29T11:11:18.412Z,2.46
2023-04-29T11:12:18.497Z,2.53
2023-04-29T11:13:18.516Z,2.19
2023-04-29T11:14:18.494Z,2.22
2023-04-29T11:15:18.553Z,1.00
2023-04-29T11:16:18.568Z,0.43
2023-04-29T11:17:18.668Z,0.37
2023-04-29T11:18:18.678Z,0.48
2023-04-29T11:19:18.673Z,0.75
2023-04-29T11:20:18.747Z,0.58
2023-04-29T11:21:18.786Z,0.43
2023-04-29T11:22:18.790Z,0.57
2023-04-29T11:23:18.816Z,0.67
2023-04-29T11:24:18.877Z,0.69
2023-04-29T11:25:18.900Z,1.83
2023-04-29T11:26:18.959Z,3.61
2023-04-29T11:27:19.035Z,8.37
2023-04-29T11:28:18.998Z,14.28
2023-04-29T11:29:19.042Z,7.90
2023-04-29T11:30:19.084Z,7.57
2023-04-29T11:31:19.211Z,13.58
2023-04-29T11:32:19.186Z,9.55
2023-04-29T11:33:19.252Z,5.31
2023-04-29T11:34:19.186Z,6.15
2023-04-29T11:35:19.216Z,5.60
2023-04-29T11:36:19.212Z,6.20
2023-04-29T11:37:19.237Z,8.39
2023-04-29T11:38:19.253Z,11.75
2023-04-29T11:39:19.276Z,7.84
2023-04-29T11:40:19.303Z,2.31
2023-04-29T11:41:19.323Z,0.85
2023-04-29T11:42:19.367Z,0.49
2023-04-29T11:43:19.381Z,0.45
2023-04-29T11:44:19.442Z,0.74
2023-04-29T11:45:19.450Z,0.64
2023-04-29T11:46:19.518Z,0.61
2023-04-29T11:47:19.538Z,0.43
2023-04-29T11:48:19.541Z,0.39
2023-04-29T11:49:19.511Z,0.50
2023-04-29T11:50:19.694Z,0.59
2023-04-29T11:51:19.589Z,0.67
2023-04-29T11:52:19.637Z,0.77
2023-04-29T11:53:19.677Z,0.90
2023-04-29T11:54:19.714Z,0.84
2023-04-29T11:55:19.742Z,0.53
2023-04-29T11:56:19.770Z,0.90
2023-04-29T11:57:19.845Z,0.62
2023-04-29T11:58:19.841Z,0.51
2023-04-29T11:59:19.860Z,0.76
2023-04-29T12:00:19.894Z,0.48
2023-04-29T12:01:19.885Z,0.63
2023-04-29T12:02:20.091Z,0.55
2023-04-29T12:03:20.187Z,0.34
2023-04-29T12:04:20.557Z,0.45
2023-04-29T12:05:20.116Z,0.49
2023-04-29T12:06:20.040Z,0.41
2023-04-29T12:07:20.078Z,0.34
2023-04-29T12:08:20.120Z,0.34
2023-04-29T12:09:20.184Z,0.34
2023-04-29T12:10:20.221Z,0.34
2023-04-29T12:11:20.303Z,0.34
2023-04-29T12:12:20.369Z,0.67
2023-04-29T12:13:20.395Z,0.50
2023-04-29T12:14:20.413Z,0.42
2023-04-29T12:15:20.522Z,0.45
2023-04-29T12:16:20.547Z,0.99
2023-04-29T12:17:20.523Z,1.42
2023-04-29T12:18:20.479Z,1.72
2023-04-29T12:19:20.512Z,1.12
2023-04-29T12:20:20.572Z,0.58
2023-04-29T12:21:20.581Z,0.64
2023-04-29T12:22:20.611Z,0.78
2023-04-29T12:23:20.624Z,0.77
2023-04-29T12:24:20.671Z,1.22
2023-04-29T12:25:20.669Z,1.47
2023-04-29T12:26:20.740Z,2.95
2023-04-29T12:27:20.711Z,3.15
2023-04-29T12:28:20.742Z,4.57
2023-04-29T12:29:20.762Z,4.21
2023-04-29T12:30:20.810Z,2.66
2023-04-29T12:31:20.866Z,2.70
2023-04-29T12:32:20.872Z,1.53
2023-04-29T12:33:20.910Z,1.70
2023-04-29T12:34:20.892Z,0.76
2023-04-29T12:35:20.938Z,0.64
2023-04-29T12:36:21.024Z,0.43
2023-04-29T12:37:21.014Z,0.35
2023-04-29T12:38:21.065Z,0.34
2023-04-29T12:39:21.054Z,0.49
2023-04-29T12:40:21.183Z,0.44
2023-04-29T12:41:21.122Z,0.34
2023-04-29T12:42:21.211Z,0.36
2023-04-29T12:43:21.190Z,0.54
2023-04-29T12:44:21.218Z,1.01
2023-04-29T12:45:21.220Z,1.36
2023-04-29T12:46:21.336Z,1.79
2023-04-29T12:47:21.536Z,1.57
2023-04-29T12:48:29.318Z,1.87
2023-04-29T12:49:22.266Z,1.56
2023-04-29T12:50:21.266Z,1.22
2023-04-29T12:51:21.301Z,1.05
2023-04-29T12:52:21.262Z,0.63
2023-04-29T12:53:21.241Z,0.34
2023-04-29T12:54:21.270Z,0.34
2023-04-29T12:55:21.253Z,0.34
2023-04-29T12:56:21.231Z,0.63
2023-04-29T12:57:21.214Z,0.46
2023-04-29T12:58:21.221Z,0.42
2023-04-29T12:59:21.265Z,0.47
2023-04-29T13:00:21.204Z,0.73
2023-04-29T13:01:21.239Z,0.98
2023-04-29T13:02:21.243Z,0.62
2023-04-29T13:03:22.418Z,0.54
2023-04-29T13:04:21.283Z,0.92
2023-04-29T13:05:21.233Z,0.74
2023-04-29T13:06:21.257Z,0.38